Sheridan, WY

11:53 AM MDT on August 21, 2014 (GMT -0600)
North Airport Area | Change Station
CLOSE
Current Station
Personal Weather Station
Location: Sheridan, WY
Elevation: 3917 ft
Nearby Weather Stations

Elev 3917 ft 44.78 °N, 106.97 °W | Updated 56 minutes ago

Partly Cloudy
Partly Cloudy
70.0 °F
Feels Like 70.0 °F
N
3.2
Wind Variable Wind from NNW

Today
High -- | Low -- °F
--% Chance of Precip.
Yesterday
High -- | Low -- °F
Precip. -- in
6:17 AM 8:03 PM
Waning Crescent, 13% visible
Pressure 29.95 in
Visibility 10.0 miles
Clouds Few 3600 ft
Dew Point 54 °F
Humidity 56%
Rainfall 0.00 in
Snow Depth Not available.
UV 6 out of 12
Pollen 8.50 out of 12
Air Quality Not available.
Flu Activity Not available.
METAR KSHR 211653Z AUTO VRB03KT 10SM FEW036 22/10 A3004 RMK AO2 SLP141 T02170100

More Conditions Fewer Conditions

Pressure 29.95 in
Visibility 10.0 miles
Clouds Few 3600 ft
Dew Point 54 °F
Humidity 56%
Rainfall 0.00 in
Snow Depth Not available.
UV 6 out of 12
Pollen 8.50 out of 12
Air Quality Not available.
Flu Activity Not available.
METAR KSHR 211653Z AUTO VRB03KT 10SM FEW036 22/10 A3004 RMK AO2 SLP141 T02170100

More Conditions Fewer Conditions

10-Day Weather Forecast

Almanac

Astronomy

Aug. 21, 2014 Rise Set
Actual Time 6:17 AM MDT 8:03 PM MDT
Civil Twilight 5:46 AM MDT 8:34 PM MDT
Nautical Twilight 5:07 AM MDT 9:12 PM MDT
Astronomical Twilight 4:26 AM MDT 9:53 PM MDT
Moon 2:45 AM MDT 5:38 PM MDT
Length of Visible Light 14h 48m
Length of Day
13h 46m
Tomorrow will be 2m 52s shorter.
Waning Crescent, 13% of the Moon is Illuminated
Today
Waning Crescent
Aug 25
New
Sep 2
First Quarter
Sep 8
Full
Sep 15
Last Quarter

Today's Extremes

State Highs State Lows

Community

WunderPhotos

Upload Photos

1,745,987 photos uploaded!

Nearby

Snow Depth

Station Depth Elevation
Casper Mountain 0 in 7850 ft
Sylvan Lake 0 in 8420 ft
Reno Hill 0 in 8500 ft
Base Camp 0 in 7030 ft
Gros Ventre Summit 0 in 8750 ft

Earthquake Activity

City Distance Mag. Time & Date
No recent earthquake activity has been reported nearby.
Minimum magnitude displayed is 2.5.

Coastal Water Temperatures

Place Temperature
No Stations Reporting

Nearby Weather Stations